Time;durP1;ratioP1;P1;durP2;ratioP2;P2;SDS_P1;SDS_P2;PMS_P1;PMS_P2;Temp;Humidity;BMP_temperature;BMP_pressure;BME280_temperature;BME280_humidity;BME280_pressure;Samples;Min_cycle;Max_cycle;Signal;HPM_P1;HPM_P2
2021/09/21 00:00:58;;;;;;;2.60;1.25;;;;;;;;;;4997037;28;20084;-84
2021/09/21 00:03:24;;;;;;;1.30;0.88;;;;;;;;;;4997461;28;20033;-83
2021/09/21 00:05:50;;;;;;;1.60;1.33;;;;;;;;;;4993374;28;20022;-85
2021/09/21 00:08:16;;;;;;;0.95;0.70;;;;;;;;;;5008957;28;20034;-84
2021/09/21 00:10:42;;;;;;;2.13;0.77;;;;;;;;;;5005281;28;20026;-83
2021/09/21 00:13:08;;;;;;;2.08;1.30;;;;;;;;;;5018937;28;20026;-84
2021/09/21 00:15:34;;;;;;;1.25;0.80;;;;;;;;;;5017607;28;20045;-84
2021/09/21 00:18:00;;;;;;;1.13;0.77;;;;;;;;;;5010838;28;20030;-83
2021/09/21 00:20:26;;;;;;;6.13;0.98;;;;;;;;;;5002004;28;20045;-83
2021/09/21 00:22:52;;;;;;;1.48;0.98;;;;;;;;;;4989814;28;20030;-84
2021/09/21 00:25:18;;;;;;;1.40;1.30;;;;;;;;;;4996857;28;20058;-83
2021/09/21 00:27:44;;;;;;;1.50;1.02;;;;;;;;;;4997670;28;20030;-84
2021/09/21 00:30:12;;;;;;;2.03;1.40;;;;;;;;;;4995016;28;20026;-84
2021/09/21 00:32:38;;;;;;;1.52;1.02;;;;;;;;;;5024188;28;20030;-84
2021/09/21 00:35:04;;;;;;;1.98;1.23;;;;;;;;;;5008285;28;20026;-83
2021/09/21 00:37:30;;;;;;;1.67;1.13;;;;;;;;;;5009729;28;20033;-84
2021/09/21 00:39:56;;;;;;;2.03;1.20;;;;;;;;;;5000421;28;20042;-85
2021/09/21 00:42:24;;;;;;;7.43;1.15;;;;;;;;;;5005427;28;20029;-84
2021/09/21 00:44:58;;;;;;;1.58;0.90;;;16.80;78.30;;;;;;5022355;28;20030;-83
2021/09/21 00:47:24;;;;;;;3.00;0.80;;;16.80;78.10;;;;;;5026912;28;20038;-84
2021/09/21 00:49:51;;;;;;;5.47;0.93;;;;;;;;;;5011029;28;20072;-84
2021/09/21 00:52:17;;;;;;;1.23;0.80;;;;;;;;;;5011286;28;20070;-83
2021/09/21 00:54:43;;;;;;;1.20;1.10;;;;;;;;;;5007192;28;20391;-83
2021/09/21 00:57:09;;;;;;;2.60;1.08;;;;;;;;;;5024187;28;20076;-83
2021/09/21 00:59:35;;;;;;;1.75;0.73;;;;;;;;;;4998559;28;20037;-83
2021/09/21 01:02:01;;;;;;;1.40;1.15;;;;;;;;;;4995416;28;20034;-84
2021/09/21 01:04:27;;;;;;;3.25;0.80;;;;;;;;;;4997943;28;20463;-83
2021/09/21 01:06:53;;;;;;;1.00;0.85;;;;;;;;;;5024022;28;20566;-84
2021/09/21 01:09:20;;;;;;;2.13;1.42;;;16.80;78.90;;;;;;5007631;28;20036;-83
2021/09/21 01:11:47;;;;;;;1.27;0.85;;;16.80;79.30;;;;;;5000129;28;20017;-84
2021/09/21 01:14:13;;;;;;;2.63;2.28;;;;;;;;;;4995501;28;20034;-84
2021/09/21 01:16:39;;;;;;;1.05;0.93;;;;;;;;;;5022998;28;20029;-84
2021/09/21 01:19:05;;;;;;;3.20;0.88;;;;;;;;;;5015726;28;20553;-82
2021/09/21 01:21:31;;;;;;;1.13;0.98;;;;;;;;;;5015077;28;20096;-83
2021/09/21 01:23:57;;;;;;;2.55;2.35;;;;;;;;;;4999324;28;20049;-83
2021/09/21 01:26:24;;;;;;;1.48;0.80;;;;;;;;;;4997197;28;20034;-84
2021/09/21 01:28:51;;;;;;;1.00;0.75;;;;;;;;;;5011245;28;20489;-84
2021/09/21 01:31:17;;;;;;;1.35;0.80;;;;;;;;;;5007476;28;20053;-83
2021/09/21 01:33:50;;;;;;;1.60;0.93;;;16.70;79.60;;;;;;5003051;28;20038;-83
2021/09/21 01:36:17;;;;;;;1.80;1.38;;;16.80;79.60;;;;;;5015959;28;20030;-84
2021/09/21 01:38:44;;;;;;;2.33;1.15;;;;;;;;;;4995965;28;20061;-84
2021/09/21 01:41:10;;;;;;;3.80;0.90;;;;;;;;;;5018824;28;20080;-83
2021/09/21 01:43:36;;;;;;;2.72;1.10;;;;;;;;;;5006775;28;20036;-84
2021/09/21 01:46:02;;;;;;;0.85;0.82;;;;;;;;;;5010752;28;20037;-84
2021/09/21 01:48:28;;;;;;;1.55;1.05;;;;;;;;;;5025402;28;20030;-84
2021/09/21 01:59:19;;;;;;;0.73;0.63;;;16.80;78.20;;;;;;5008723;28;20469;-85
2021/09/21 02:01:45;;;;;;;1.77;1.08;;;;;;;;;;5010125;28;20089;-83
2021/09/21 02:04:12;;;;;;;2.42;1.65;;;;;;;;;;5014218;28;20050;-84
2021/09/21 02:06:39;;;;;;;1.20;0.98;;;;;;;;;;5016025;28;20014;-84
2021/09/21 02:09:07;;;;;;;1.20;0.80;;;;;;;;;;5003891;28;20133;-84
2021/09/21 02:11:34;;;;;;;1.23;1.00;;;;;;;;;;5010031;28;20030;-83
2021/09/21 02:14:00;;;;;;;12.02;1.23;;;;;;;;;;5009319;28;20076;-84
2021/09/21 02:16:28;;;;;;;0.98;0.82;;;16.80;78.00;;;;;;4996486;28;20030;-83
2021/09/21 02:18:54;;;;;;;;;;;16.80;78.10;;;;;;5018318;28;20040;-83
2021/09/21 02:21:20;;;;;;;3.25;1.42;;;;;;;;;;5005610;28;19918;-83
2021/09/21 02:23:46;;;;;;;1.02;0.90;;;;;;;;;;5006034;28;20084;-85
2021/09/21 02:26:12;;;;;;;1.63;0.82;;;;;;;;;;5009845;28;20061;-84
2021/09/21 02:28:38;;;;;;;0.60;0.60;;;;;;;;;;5006620;28;20026;-83
2021/09/21 02:31:05;;;;;;;1.17;0.80;;;;;;;;;;4999341;28;20034;-84
2021/09/21 02:33:31;;;;;;;0.80;0.68;;;;;;;;;;4998581;28;20032;-83
2021/09/21 02:35:57;;;;;;;1.17;0.93;;;;;;;;;;4997792;28;20053;-84
2021/09/21 02:38:23;;;;;;;0.85;0.60;;;16.70;76.10;;;;;;4994780;28;20033;-84
2021/09/21 02:40:49;;;;;;;1.73;0.98;;;;;;;;;;4994292;28;20134;-82
2021/09/21 02:43:15;;;;;;;1.83;0.88;;;;;;;;;;4998288;28;20443;-85
2021/09/21 02:45:41;;;;;;;1.23;1.00;;;;;;;;;;4994653;28;20042;-83
2021/09/21 02:48:07;;;;;;;1.30;1.05;;;;;;;;;;4996344;28;20026;-83
2021/09/21 02:50:33;;;;;;;0.93;0.90;;;;;;;;;;5022215;28;20096;-84
2021/09/21 02:52:59;;;;;;;1.75;1.20;;;;;;;;;;5007892;28;20121;-82
2021/09/21 02:55:25;;;;;;;0.90;0.85;;;;;;;;;;5018761;28;20033;-84
2021/09/21 02:57:51;;;;;;;2.25;1.38;;;;;;;;;;5005320;28;20030;-84
2021/09/21 03:00:22;;;;;;;2.42;0.85;;;;;;;;;;5004022;28;20525;-83
2021/09/21 03:02:49;;;;;;;1.98;1.17;;;;;;;;;;5023440;28;20754;-82
2021/09/21 03:05:19;;;;;;;2.20;1.33;;;;;;;;;;4993577;28;20034;-84
2021/09/21 03:08:30;;;;;;;1.00;0.82;;;;;;;;;;5006367;28;20026;-83
2021/09/21 03:13:38;;;;;;;1.00;0.90;;;16.70;78.80;;;;;;5008730;28;20568;-83
2021/09/21 03:18:49;;;;;;;0.98;0.85;;;;;;;;;;5009393;28;20076;-83
2021/09/21 03:21:15;;;;;;;15.65;1.42;;;;;;;;;;5019843;28;20041;-83
2021/09/21 03:23:41;;;;;;;1.50;0.98;;;;;;;;;;5008638;28;20022;-83
2021/09/21 03:26:07;;;;;;;1.88;0.95;;;;;;;;;;5008342;28;20054;-84
2021/09/21 03:28:33;;;;;;;2.22;1.25;;;;;;;;;;5009966;28;20060;-85
2021/09/21 03:31:00;;;;;;;2.58;1.02;;;;;;;;;;5013623;28;20124;-83
2021/09/21 03:33:26;;;;;;;2.40;1.30;;;;;;;;;;5003017;28;20107;-84
2021/09/21 03:35:52;;;;;;;2.38;1.58;;;;;;;;;;5008659;28;20498;-82
2021/09/21 03:38:18;;;;;;;2.38;1.40;;;;;;;;;;4993842;28;20056;-84
2021/09/21 03:40:44;;;;;;;2.47;2.00;;;;;;;;;;4993735;28;20035;-84
2021/09/21 03:43:10;;;;;;;2.65;1.52;;;;;;;;;;5008351;28;20030;-84
2021/09/21 03:45:36;;;;;;;2.22;1.30;;;;;;;;;;5009076;28;20040;-83
2021/09/21 03:48:03;;;;;;;5.43;1.92;;;;;;;;;;5007401;28;20143;-83
2021/09/21 03:50:29;;;;;;;4.15;1.83;;;;;;;;;;5006351;28;20030;-83
2021/09/21 03:52:55;;;;;;;2.13;1.70;;;;;;;;;;4992946;28;20461;-84
2021/09/21 03:55:21;;;;;;;2.92;1.80;;;;;;;;;;5009794;28;20033;-83
2021/09/21 03:57:47;;;;;;;4.47;2.20;;;;;;;;;;5011026;28;20430;-83
2021/09/21 04:00:13;;;;;;;3.53;2.00;;;;;;;;;;4998983;28;20042;-83
2021/09/21 04:02:40;;;;;;;2.20;1.90;;;;;;;;;;4992487;28;20019;-84
2021/09/21 04:05:06;;;;;;;3.63;1.63;;;;;;;;;;5022533;28;20038;-84
2021/09/21 04:07:32;;;;;;;2.97;1.58;;;;;;;;;;5009731;28;20071;-83
2021/09/21 04:09:58;;;;;;;2.53;1.48;;;;;;;;;;5003571;28;20049;-83
2021/09/21 04:12:24;;;;;;;2.50;1.67;;;;;;;;;;5003841;28;20547;-83
2021/09/21 04:14:50;;;;;;;3.97;2.05;;;;;;;;;;5010272;28;20092;-83
2021/09/21 04:17:16;;;;;;;3.97;2.17;;;;;;;;;;5027352;28;20037;-83
2021/09/21 04:19:42;;;;;;;2.97;1.95;;;;;;;;;;5019664;28;20121;-84
2021/09/21 04:22:08;;;;;;;4.50;2.75;;;;;;;;;;5012262;28;20404;-83
2021/09/21 04:24:35;;;;;;;4.50;2.50;;;;;;;;;;5006680;28;20046;-83
2021/09/21 04:27:01;;;;;;;3.22;1.90;;;;;;;;;;5009359;28;20034;-86
2021/09/21 04:29:27;;;;;;;7.30;2.90;;;;;;;;;;4998369;28;20095;-84
2021/09/21 04:31:55;;;;;;;4.43;2.33;;;;;;;;;;5010015;28;20027;-85
2021/09/21 04:34:21;;;;;;;4.03;2.20;;;;;;;;;;5006011;28;20041;-84
2021/09/21 04:36:47;;;;;;;4.63;2.40;;;;;;;;;;5023674;28;20030;-83
2021/09/21 04:39:13;;;;;;;3.97;2.35;;;;;;;;;;5001477;28;20026;-84
2021/09/21 04:41:39;;;;;;;9.35;2.08;;;;;;;;;;5010635;28;20534;-84
2021/09/21 04:44:06;;;;;;;3.05;2.00;;;;;;;;;;5021407;28;26131;-83
2021/09/21 04:46:35;;;;;;;3.28;1.85;;;;;;;;;;5020714;28;20101;-84
2021/09/21 04:49:04;;;;;;;8.77;2.45;;;;;;;;;;5006487;28;20387;-83
2021/09/21 04:51:31;;;;;;;4.63;2.67;;;;;;;;;;5005094;28;20030;-84
2021/09/21 04:53:57;;;;;;;4.82;2.15;;;;;;;;;;4999291;28;20414;-84
2021/09/21 04:56:23;;;;;;;5.50;2.38;;;;;;;;;;4995803;28;20080;-84
2021/09/21 04:58:49;;;;;;;6.35;2.95;;;;;;;;;;5010165;28;20037;-84
2021/09/21 05:01:15;;;;;;;6.97;2.78;;;;;;;;;;5006235;28;20065;-83
2021/09/21 05:03:41;;;;;;;4.68;2.63;;;;;;;;;;5007293;28;20072;-83
2021/09/21 05:06:07;;;;;;;4.35;2.47;;;;;;;;;;5009561;28;20034;-83
2021/09/21 05:08:33;;;;;;;5.18;2.30;;;;;;;;;;5022882;28;20034;-84
2021/09/21 05:10:59;;;;;;;4.97;2.85;;;;;;;;;;5007033;28;20038;-83
2021/09/21 05:13:25;;;;;;;4.63;2.58;;;;;;;;;;5019815;28;20030;-83
2021/09/21 05:15:52;;;;;;;5.63;2.15;;;;;;;;;;5004158;28;20516;-83
2021/09/21 05:18:17;;;;;;;4.10;2.47;;;;;;;;;;5006134;28;20030;-85
2021/09/21 05:20:43;;;;;;;3.42;2.33;;;;;;;;;;5005669;28;20036;-84
2021/09/21 05:23:10;;;;;;;3.40;2.67;;;;;;;;;;5003502;28;20036;-83
2021/09/21 05:25:36;;;;;;;7.55;2.28;;;;;;;;;;5000662;28;20034;-84
2021/09/21 05:28:02;;;;;;;6.70;2.78;;;;;;;;;;5004899;28;20030;-84
2021/09/21 05:30:28;;;;;;;4.70;2.70;;;;;;;;;;5006160;28;20026;-84
2021/09/21 05:32:54;;;;;;;5.22;3.00;;;;;;;;;;5013720;28;20026;-83
2021/09/21 05:35:20;;;;;;;3.67;1.83;;;;;;;;;;5014450;28;20045;-83
2021/09/21 05:37:46;;;;;;;4.18;2.83;;;;;;;;;;5019492;28;20026;-83
2021/09/21 05:40:16;;;;;;;4.57;2.75;;;;;;;;;;5006916;28;20046;-84
2021/09/21 05:42:42;;;;;;;3.25;1.98;;;;;;;;;;5007772;28;20026;-83
2021/09/21 05:45:08;;;;;;;12.80;2.50;;;;;;;;;;5003772;28;20140;-84
2021/09/21 05:47:35;;;;;;;4.35;2.58;;;;;;;;;;5017763;28;20048;-83
2021/09/21 05:50:02;;;;;;;4.93;2.15;;;;;;;;;;5009963;28;20045;-85
2021/09/21 05:52:28;;;;;;;3.30;2.20;;;;;;;;;;5023394;28;20128;-83
2021/09/21 05:54:54;;;;;;;7.63;2.58;;;;;;;;;;5002522;28;20117;-94
2021/09/21 05:57:20;;;;;;;4.28;1.85;;;;;;;;;;5003914;28;20026;-85
2021/09/21 05:59:46;;;;;;;6.32;2.92;;;;;;;;;;5012929;28;20029;-84
2021/09/21 06:02:12;;;;;;;4.50;2.08;;;;;;;;;;5006680;28;20041;-83
2021/09/21 06:04:39;;;;;;;6.95;2.47;;;;;;;;;;4994414;28;20033;-84
2021/09/21 06:07:05;;;;;;;5.68;3.33;;;;;;;;;;4998504;28;20056;-85
2021/09/21 06:09:31;;;;;;;6.75;2.50;;;;;;;;;;4998035;28;20032;-85
2021/09/21 06:11:57;;;;;;;3.90;2.47;;;;;;;;;;4999833;28;20046;-84
2021/09/21 06:14:23;;;;;;;9.73;2.80;;;;;;;;;;5009828;28;20177;-84
2021/09/21 06:16:49;;;;;;;4.78;2.20;;;;;;;;;;5007884;28;20037;-84
2021/09/21 06:19:15;;;;;;;3.80;2.35;;;;;;;;;;5025035;28;20049;-84
2021/09/21 06:21:41;;;;;;;7.20;3.13;;;;;;;;;;5002558;28;20760;-85
2021/09/21 06:24:07;;;;;;;3.92;2.65;;;;;;;;;;5001377;28;20073;-86
2021/09/21 06:26:41;;;;;;;8.25;2.47;;;;;;;;;;4972164;28;20044;-89
2021/09/21 06:29:26;;;;;;;4.43;2.70;;;;;;;;;;4754439;28;20459;-93
2021/09/21 06:31:53;;;;;;;3.83;2.55;;;;;;;;;;4795822;28;20354;-91
2021/09/21 06:34:19;;;;;;;4.85;2.53;;;;;;;;;;5009985;28;20064;-90
2021/09/21 06:36:46;;;;;;;2.70;1.77;;;;;;;;;;5008949;28;20511;-92
2021/09/21 06:39:12;;;;;;;3.88;2.92;;;;;;;;;;5012962;28;20057;-92
2021/09/21 06:41:38;;;;;;;4.32;2.65;;;;;;;;;;5028543;28;20579;-90
2021/09/21 06:44:04;;;;;;;3.10;2.00;;;;;;;;;;5012233;28;20037;-91
2021/09/21 06:46:30;;;;;;;5.32;3.00;;;;;;;;;;5013106;28;20034;-91
2021/09/21 06:48:56;;;;;;;4.13;2.38;;;;;;;;;;4996232;28;20064;-93
2021/09/21 06:51:22;;;;;;;7.82;2.50;;;;;;;;;;5005085;28;20034;-92
2021/09/21 06:53:48;;;;;;;4.53;2.42;;;;;;;;;;5028071;28;20018;-90
2021/09/21 06:56:14;;;;;;;5.50;2.38;;;;;;;;;;5028342;28;20045;-91
2021/09/21 06:58:42;;;;;;;5.40;2.67;;;;;;;;;;5028182;28;20109;-85
2021/09/21 07:01:08;;;;;;;4.93;2.00;;;;;;;;;;5008215;28;20069;-84
2021/09/21 07:03:34;;;;;;;3.13;1.90;;;;;;;;;;5023481;28;20053;-83
2021/09/21 07:06:02;;;;;;;4.30;2.65;;;;;;;;;;5006395;28;20033;-83
2021/09/21 07:08:28;;;;;;;4.70;2.72;;;;;;;;;;4994527;28;20686;-85
2021/09/21 07:10:54;;;;;;;3.80;1.90;;;;;;;;;;5008994;28;20034;-85
2021/09/21 07:13:20;;;;;;;2.50;2.08;;;;;;;;;;5009009;28;20026;-84
2021/09/21 07:15:46;;;;;;;4.95;2.47;;;;;;;;;;5000792;28;20041;-85
2021/09/21 07:18:12;;;;;;;4.75;2.30;;;;;;;;;;5001649;28;20184;-85
2021/09/21 07:20:38;;;;;;;4.45;1.92;;;;;;;;;;5004605;28;20042;-85
2021/09/21 07:23:04;;;;;;;4.97;2.33;;;;;;;;;;5006048;28;20553;-85
2021/09/21 07:25:32;;;;;;;7.78;1.70;;;;;;;;;;5007600;28;20092;-85
2021/09/21 07:28:02;;;;;;;3.28;1.80;;;;;;;;;;5003681;28;20038;-84
2021/09/21 07:30:28;;;;;;;6.03;3.13;;;;;;;;;;5004047;28;20032;-84
2021/09/21 07:32:54;;;;;;;3.47;2.20;;;;;;;;;;5007764;28;20029;-84
2021/09/21 07:35:20;;;;;;;2.03;1.42;;;;;;;;;;5004925;28;20151;-85
2021/09/21 07:37:47;;;;;;;5.57;1.55;;;;;;;;;;5008180;28;20057;-84
2021/09/21 07:40:13;;;;;;;4.68;1.75;;;;;;;;;;5006093;28;20044;-84
2021/09/21 07:42:39;;;;;;;4.27;2.20;;;;;;;;;;5008361;28;20491;-85
2021/09/21 07:45:06;;;;;;;2.45;1.80;;;;;;;;;;5008192;28;20045;-84
2021/09/21 07:47:32;;;;;;;3.08;1.58;;;;;;;;;;5008177;28;20053;-85
2021/09/21 07:49:59;;;;;;;2.50;2.00;;;;;;;;;;5012067;28;20045;-84
2021/09/21 07:52:26;;;;;;;7.50;2.03;;;;;;;;;;5012792;28;20022;-84
2021/09/21 07:54:52;;;;;;;3.78;2.42;;;;;;;;;;5012198;28;20088;-84
2021/09/21 07:57:18;;;;;;;3.65;1.75;;;;;;;;;;5011638;28;20038;-85
2021/09/21 07:59:44;;;;;;;4.13;1.27;;;;;;;;;;5009456;28;20026;-84
2021/09/21 08:02:12;;;;;;;4.78;1.73;;;;;;;;;;5011118;28;20041;-85
2021/09/21 08:04:38;;;;;;;2.55;1.70;;;;;;;;;;5012212;28;20113;-85
2021/09/21 08:07:05;;;;;;;4.20;1.80;;;18.00;72.20;;;;;;5012233;28;20132;-85
2021/09/21 08:09:31;;;;;;;3.87;1.60;;;;;;;;;;5010741;28;20736;-82
2021/09/21 08:11:57;;;;;;;3.78;2.22;;;;;;;;;;5010690;28;20647;-85
2021/09/21 08:14:23;;;;;;;5.78;1.88;;;;;;;;;;5009445;28;20037;-83
2021/09/21 08:16:49;;;;;;;3.70;1.98;;;;;;;;;;5010740;28;20256;-83
2021/09/21 08:19:15;;;;;;;3.80;2.03;;;;;;;;;;5001288;28;20088;-84
2021/09/21 08:21:41;;;;;;;6.93;1.95;;;;;;;;;;5001834;28;20128;-83
2021/09/21 08:24:07;;;;;;;2.28;1.13;;;;;;;;;;5000050;28;20038;-84
2021/09/21 08:26:33;;;;;;;2.58;1.60;;;;;;;;;;4998217;28;20045;-84
2021/09/21 08:28:59;;;;;;;5.22;1.55;;;;;;;;;;5011478;28;20645;-85
2021/09/21 08:31:25;;;;;;;1.13;0.98;;;;;;;;;;4995386;28;20141;-85
2021/09/21 08:33:51;;;;;;;1.88;1.27;;;;;;;;;;5007868;28;20049;-83
2021/09/21 08:36:18;;;;;;;1.27;1.17;;;;;;;;;;5010793;28;20146;-84
2021/09/21 08:38:44;;;;;;;9.57;2.00;;;;;;;;;;5010580;28;20017;-84
2021/09/21 08:41:10;;;;;;;4.70;2.13;;;;;;;;;;5009562;28;20130;-84
2021/09/21 08:43:36;;;;;;;5.15;1.40;;;;;;;;;;4996305;28;20111;-85
2021/09/21 08:46:02;;;;;;;2.85;1.63;;;;;;;;;;5009100;28;20038;-84
2021/09/21 08:48:28;;;;;;;5.35;1.13;;;;;;;;;;5009874;28;20029;-84
2021/09/21 08:50:54;;;;;;;3.05;1.60;;;;;;;;;;5010685;28;20112;-83
2021/09/21 08:53:20;;;;;;;4.20;1.77;;;;;;;;;;4995501;28;20498;-83
2021/09/21 08:55:46;;;;;;;1.50;1.30;;;;;;;;;;5010498;28;20034;-85
2021/09/21 08:58:13;;;;;;;4.47;1.85;;;;;;;;;;5005123;28;20030;-85
2021/09/21 09:00:39;;;;;;;2.33;1.00;;;;;;;;;;4998044;28;20046;-85
2021/09/21 09:03:11;;;;;;;1.98;1.10;;;21.20;62.00;;;;;;5001036;28;20072;-84
2021/09/21 09:05:54;;;;;;;3.70;1.55;;;21.40;60.50;;;;;;5011046;28;20081;-86
2021/09/21 09:08:34;;;;;;;1.30;1.15;;;21.60;78.50;;;;;;4995618;28;20090;-84
2021/09/21 09:11:23;;;;;;;2.95;1.85;;;21.80;57.40;;;;;;5010528;28;20025;-85
2021/09/21 09:14:00;;;;;;;3.50;1.10;;;;;;;;;;5009187;28;20069;-85
2021/09/21 09:16:32;;;;;;;2.90;1.48;;;;;;;;;;5011041;28;20038;-83
2021/09/21 09:19:02;;;;;;;2.88;1.23;;;;;;;;;;5016332;28;20034;-85
2021/09/21 09:21:31;;;;;;;4.10;1.30;;;23.00;54.90;;;;;;5004470;28;20103;-83
2021/09/21 09:23:59;;;;;;;4.40;1.30;;;;;;;;;;5010884;28;20483;-85
2021/09/21 09:26:25;;;;;;;2.95;1.30;;;;;;;;;;5010879;28;20034;-85
2021/09/21 09:28:53;;;;;;;2.67;1.13;;;23.10;52.80;;;;;;5011075;28;20080;-84
2021/09/21 09:31:27;;;;;;;3.60;1.17;;;;;;;;;;4996989;28;20499;-85
2021/09/21 09:34:06;;;;;;;2.45;1.40;;;22.60;54.60;;;;;;5008050;28;20125;-86
2021/09/21 09:36:32;;;;;;;5.47;1.60;;;;;;;;;;5025240;28;20029;-85
2021/09/21 09:39:02;;;;;;;4.43;1.98;;;;;;;;;;5010533;28;20040;-85
2021/09/21 09:41:39;;;;;;;3.08;1.10;;;23.30;52.70;;;;;;5024642;28;20069;-86
2021/09/21 09:44:16;;;;;;;2.10;1.50;;;23.10;51.90;;;;;;5009516;28;20654;-86
2021/09/21 09:47:04;;;;;;;3.00;1.63;;;;;;;;;;4993124;28;20410;-85
2021/09/21 09:49:30;;;;;;;3.80;1.63;;;;;;;;;;4996223;28;20041;-85
2021/09/21 09:51:57;;;;;;;3.83;2.03;;;;;;;;;;5006946;28;20030;-85
2021/09/21 09:54:24;;;;;;;2.05;1.63;;;;;;;;;;5007006;28;20103;-85
2021/09/21 09:56:50;;;;;;;7.53;2.55;;;;;;;;;;5009623;28;20038;-84
2021/09/21 09:59:16;;;;;;;5.57;1.40;;;;;;;;;;4993225;28;20053;-83
2021/09/21 10:01:44;;;;;;;3.40;2.40;;;;;;;;;;5025572;28;20064;-84
2021/09/21 10:04:13;;;;;;;;;;;24.80;50.00;;;;;;5009566;28;20380;-84
2021/09/21 10:06:39;;;;;;;3.70;1.90;;;;;;;;;;5003999;28;19910;-83
2021/09/21 10:09:05;;;;;;;2.88;1.33;;;;;;;;;;5000245;28;20060;-84
2021/09/21 10:11:32;;;;;;;2.30;1.10;;;;;;;;;;5023699;28;20495;-84
2021/09/21 10:13:59;;;;;;;1.98;1.17;;;25.90;46.20;;;;;;5008590;28;20100;-83
2021/09/21 10:16:25;;;;;;;3.15;1.85;;;;;;;;;;5009706;28;20026;-84
2021/09/21 10:18:55;;;;;;;2.97;1.80;;;;;;;;;;5015996;28;20044;-83
2021/09/21 10:21:38;;;;;;;1.92;1.00;;;;;;;;;;5001644;28;20038;-83
2021/09/21 10:24:07;;;;;;;2.28;1.40;;;25.30;46.00;;;;;;5023470;28;20037;-84
2021/09/21 10:26:39;;;;;;;2.53;1.17;;;;;;;;;;5005984;28;20585;-84
2021/09/21 10:29:05;;;;;;;1.73;1.00;;;;;;;;;;5008315;28;20686;-84
2021/09/21 10:31:34;;;;;;;2.70;1.75;;;;;;;;;;5024788;28;20058;-84
2021/09/21 10:34:09;;;;;;;1.13;1.00;;;;;;;;;;5008291;28;20076;-85
2021/09/21 10:36:45;;;;;;;2.05;1.25;;;24.20;51.30;;;;;;5001722;28;20033;-85
2021/09/21 10:39:12;;;;;;;2.58;1.83;;;;;;;;;;5001090;28;20037;-84
2021/09/21 10:42:04;;;;;;;4.00;2.20;;;23.60;50.80;;;;;;5001021;28;20037;-84
2021/09/21 10:44:30;;;;;;;3.15;1.80;;;;;;;;;;5020364;28;20132;-84
2021/09/21 10:47:00;;;;;;;4.40;2.25;;;;;;;;;;5008730;28;20066;-85
2021/09/21 10:49:37;;;;;;;7.70;1.45;;;23.40;53.00;;;;;;5010145;28;20022;-86
2021/09/21 10:52:15;;;;;;;3.05;1.85;;;23.50;51.20;;;;;;4996963;28;20031;-85
2021/09/21 10:54:50;;;;;;;2.95;1.58;;;23.50;52.40;;;;;;5004643;28;20057;-84
2021/09/21 10:57:18;;;;;;;3.40;1.85;;;;;;;;;;5003264;28;20030;-84
2021/09/21 10:59:57;;;;;;;3.15;1.75;;;;;;;;;;4996092;28;20034;-83
2021/09/21 11:02:24;;;;;;;3.00;1.83;;;;;;;;;;5008142;28;20115;-84
2021/09/21 11:04:50;;;;;;;3.58;1.70;;;;;;;;;;5008255;28;20021;-85
2021/09/21 11:07:16;;;;;;;2.85;1.42;;;;;;;;;;4996627;28;20527;-84
2021/09/21 11:09:43;;;;;;;2.63;1.75;;;;;;;;;;4996879;28;20026;-84
2021/09/21 11:12:10;;;;;;;2.58;1.65;;;;;;;;;;5004779;28;20030;-83
2021/09/21 11:14:40;;;;;;;4.53;1.75;;;;;;;;;;5007906;28;20115;-83
2021/09/21 11:17:07;;;;;;;3.15;2.03;;;23.40;52.60;;;;;;5008010;28;20054;-83
2021/09/21 11:19:34;;;;;;;4.07;1.42;;;;;;;;;;5024198;28;20030;-83
2021/09/21 11:22:03;;;;;;;2.22;1.60;;;23.10;54.10;;;;;;5007292;28;20041;-82
2021/09/21 11:24:29;;;;;;;3.80;1.60;;;;;;;;;;5006857;28;20092;-83
2021/09/21 11:27:01;;;;;;;3.10;1.77;;;23.00;53.20;;;;;;5006613;28;20034;-84
2021/09/21 11:29:27;;;;;;;7.72;2.28;;;;;;;;;;4993765;28;20040;-82
2021/09/21 11:31:53;;;;;;;1.67;1.40;;;;;;;;;;5008087;28;20022;-82
2021/09/21 11:34:21;;;;;;;5.32;1.63;;;;;;;;;;4996292;28;20027;-82
2021/09/21 11:36:50;;;;;;;5.05;1.75;;;;;;;;;;5003640;28;20049;-83
2021/09/21 11:39:17;;;;;;;2.90;1.25;;;;;;;;;;5006676;28;20040;-83
2021/09/21 11:41:44;;;;;;;3.90;1.77;;;;;;;;;;5007155;28;20138;-83
2021/09/21 11:44:10;;;;;;;3.00;1.73;;;;;;;;;;4991848;28;20104;-83
2021/09/21 11:46:36;;;;;;;4.32;1.63;;;;;;;;;;5008755;28;20034;-83
2021/09/21 11:49:03;;;;;;;1.60;1.20;;;;;;;;;;5008199;28;20033;-85
2021/09/21 11:51:34;;;;;;;2.88;1.50;;;;;;;;;;5017970;28;20026;-83
2021/09/21 11:54:00;;;;;;;2.88;1.70;;;;;;;;;;4996650;28;20034;-84
2021/09/21 11:56:26;;;;;;;2.42;1.75;;;;;;;;;;5005752;28;20518;-86
2021/09/21 11:58:59;;;;;;;2.13;1.20;;;;;;;;;;5007974;28;20765;-85
2021/09/21 12:01:25;;;;;;;4.55;1.55;;;;;;;;;;5019329;28;20041;-84
2021/09/21 12:03:55;;;;;;;1.90;1.20;;;;;;;;;;5007068;28;20117;-84
2021/09/21 12:06:35;;;;;;;3.08;1.55;;;22.30;53.80;;;;;;5022545;28;20057;-84
2021/09/21 12:09:02;;;;;;;2.90;1.67;;;;;;;;;;5005221;28;20029;-84
2021/09/21 12:11:28;;;;;;;3.00;2.13;;;;;;;;;;5005604;28;20104;-84
2021/09/21 12:13:57;;;;;;;2.15;1.30;;;;;;;;;;5022342;28;20129;-86
2021/09/21 12:16:23;;;;;;;1.50;1.23;;;;;;;;;;5007838;28;20033;-85
2021/09/21 12:18:49;;;;;;;3.38;1.77;;;;;;;;;;5014438;28;20088;-84
2021/09/21 12:21:17;;;;;;;3.97;1.38;;;;;;;;;;4999653;28;20038;-85
2021/09/21 12:23:45;;;;;;;3.60;1.63;;;22.60;53.00;;;;;;5007409;28;20411;-85
2021/09/21 12:26:12;;;;;;;2.50;1.67;;;;;;;;;;5006669;28;20046;-85
2021/09/21 12:28:39;;;;;;;1.85;1.23;;;;;;;;;;5008649;28;20030;-84
2021/09/21 12:31:08;;;;;;;2.75;1.40;;;;;;;;;;4997117;28;20030;-84
2021/09/21 12:33:35;;;;;;;3.17;1.50;;;;;;;;;;4995829;28;20509;-86
2021/09/21 12:36:01;;;;;;;2.08;1.40;;;;;;;;;;4999846;28;20034;-84
2021/09/21 12:38:27;;;;;;;2.70;1.60;;;;;;;;;;5010936;28;20084;-83
2021/09/21 12:40:53;;;;;;;5.18;1.85;;;;;;;;;;5006483;28;20030;-84
2021/09/21 12:43:20;;;;;;;4.32;1.42;;;;;;;;;;5026103;28;20466;-83
2021/09/21 12:45:47;;;;;;;3.45;1.60;;;;;;;;;;5025542;28;20060;-84
2021/09/21 12:48:13;;;;;;;2.05;1.33;;;;;;;;;;5025041;28;20034;-83
2021/09/21 12:50:40;;;;;;;2.90;2.28;;;;;;;;;;5010697;28;20434;-83
2021/09/21 12:53:07;;;;;;;2.20;1.50;;;;;;;;;;5010503;28;20539;-83
2021/09/21 12:55:34;;;;;;;2.47;1.40;;;;;;;;;;5011537;28;20119;-85
2021/09/21 12:58:00;;;;;;;;;;;;;;;;;;5001688;28;20444;-84
2021/09/21 13:00:33;;;;;;;3.13;2.13;;;;;;;;;;4999442;28;19972;-84
2021/09/21 13:02:59;;;;;;;3.30;1.33;;;;;;;;;;5000145;28;20053;-83
2021/09/21 13:05:25;;;;;;;2.85;1.30;;;;;;;;;;5025286;28;20128;-84
2021/09/21 13:07:51;;;;;;;3.92;1.70;;;;;;;;;;4994718;28;20116;-83
2021/09/21 13:10:17;;;;;;;3.42;1.90;;;;;;;;;;5010147;28;20061;-84
2021/09/21 13:12:43;;;;;;;3.03;2.22;;;;;;;;;;5010247;28;20025;-83
2021/09/21 13:15:10;;;;;;;2.80;1.83;;;;;;;;;;5009763;28;20116;-85
2021/09/21 13:17:36;;;;;;;2.65;1.38;;;;;;;;;;5025770;28;20049;-84
2021/09/21 13:20:03;;;;;;;2.25;1.50;;;21.40;57.10;;;;;;5010194;28;20046;-84
2021/09/21 13:22:29;;;;;;;2.97;1.30;;;;;;;;;;4993938;28;20084;-84
2021/09/21 13:24:55;;;;;;;2.63;1.60;;;;;;;;;;4998653;28;20058;-84
2021/09/21 13:27:21;;;;;;;4.72;2.00;;;;;;;;;;5004027;28;20081;-85
2021/09/21 13:29:47;;;;;;;2.33;1.48;;;;;;;;;;5007323;28;20088;-84
2021/09/21 13:32:13;;;;;;;2.05;1.67;;;;;;;;;;5008449;28;20033;-84
2021/09/21 13:34:39;;;;;;;3.90;1.65;;;;;;;;;;5008492;28;20026;-83
2021/09/21 13:37:05;;;;;;;2.90;1.60;;;;;;;;;;5009536;28;20033;-84
2021/09/21 13:39:31;;;;;;;3.90;1.27;;;;;;;;;;5010122;28;20040;-84
2021/09/21 13:41:57;;;;;;;2.15;1.48;;;;;;;;;;5024697;28;20045;-84
2021/09/21 13:44:23;;;;;;;3.90;2.28;;;;;;;;;;5009834;28;20022;-84
2021/09/21 13:46:49;;;;;;;2.20;1.35;;;;;;;;;;5010061;28;20034;-83
2021/09/21 13:49:16;;;;;;;3.53;1.95;;;;;;;;;;5008306;28;20091;-83
2021/09/21 13:51:42;;;;;;;3.60;1.43;;;;;;;;;;5024093;28;20026;-83
2021/09/21 13:54:08;;;;;;;4.35;1.58;;;;;;;;;;5007440;28;20034;-84
2021/09/21 13:56:34;;;;;;;3.50;1.40;;;;;;;;;;5006797;28;20033;-84
2021/09/21 13:59:01;;;;;;;3.00;1.60;;;;;;;;;;5000238;28;20037;-84
2021/09/21 14:01:27;;;;;;;2.22;1.50;;;;;;;;;;5010552;28;20125;-84
2021/09/21 14:03:53;;;;;;;4.05;1.67;;;;;;;;;;5015831;28;20464;-84
2021/09/21 14:06:19;;;;;;;2.90;2.25;;;;;;;;;;5001556;28;20118;-84
2021/09/21 14:08:45;;;;;;;2.85;2.00;;;;;;;;;;5009051;28;20017;-83
2021/09/21 14:11:11;;;;;;;7.00;1.75;;;;;;;;;;5008166;28;20033;-83
2021/09/21 14:13:37;;;;;;;2.53;1.33;;;21.30;79.20;;;;;;5025406;28;20807;-84
2021/09/21 14:16:03;;;;;;;7.25;1.58;;;;;;;;;;4998466;28;20038;-83
2021/09/21 14:18:29;;;;;;;4.57;2.28;;;;;;;;;;4998096;28;20026;-85
2021/09/21 14:20:58;;;;;;;4.75;1.60;;;;;;;;;;4997993;28;20044;-83
2021/09/21 14:23:24;;;;;;;4.07;2.20;;;;;;;;;;4993983;28;20124;-83
2021/09/21 14:25:50;;;;;;;3.55;2.40;;;;;;;;;;5008339;28;20058;-84
2021/09/21 14:28:19;;;;;;;2.95;1.83;;;;;;;;;;5004850;28;20037;-82
2021/09/21 14:30:45;;;;;;;3.28;1.92;;;;;;;;;;5001263;28;20516;-83
2021/09/21 14:33:11;;;;;;;3.08;1.77;;;;;;;;;;5001573;28;20562;-84
2021/09/21 14:35:37;;;;;;;2.83;1.48;;;;;;;;;;4995781;28;20022;-85
2021/09/21 14:38:04;;;;;;;5.35;2.67;;;;;;;;;;5008123;28;20543;-84
2021/09/21 14:40:30;;;;;;;8.13;2.05;;;;;;;;;;4992635;28;20046;-83
2021/09/21 14:42:57;;;;;;;4.88;2.08;;;;;;;;;;5005496;28;20025;-83
2021/09/21 14:45:23;;;;;;;2.50;2.10;;;20.50;60.90;;;;;;5023743;28;20034;-84